createdAt,value
2018-03-18T00:02:37.024Z,92.40
2018-03-18T00:07:10.550Z,91.50
2018-03-18T00:11:43.812Z,92.00
2018-03-18T00:16:18.766Z,92.20
2018-03-18T00:20:52.063Z,92.20
2018-03-18T00:25:26.052Z,92.40
2018-03-18T00:29:59.505Z,92.30
2018-03-18T00:34:33.539Z,92.50
2018-03-18T00:39:07.437Z,92.50
2018-03-18T00:43:41.498Z,92.30
2018-03-18T00:48:15.320Z,92.30
2018-03-18T00:52:48.755Z,92.30
2018-03-18T00:57:22.119Z,92.00
2018-03-18T01:01:56.162Z,92.10
2018-03-18T01:06:29.487Z,92.10
2018-03-18T01:11:02.899Z,92.10
2018-03-18T01:15:36.124Z,92.20
2018-03-18T01:20:09.395Z,92.20
2018-03-18T01:24:42.662Z,91.30
2018-03-18T01:29:15.929Z,91.50
2018-03-18T01:33:49.312Z,91.50
2018-03-18T01:38:23.371Z,91.70
2018-03-18T01:42:57.338Z,91.70
2018-03-18T01:47:30.926Z,91.40
2018-03-18T01:52:04.194Z,91.70
2018-03-18T01:56:37.466Z,91.10
2018-03-18T02:01:10.773Z,91.20
2018-03-18T02:05:44.044Z,91.20
2018-03-18T02:10:17.423Z,91.20
2018-03-18T02:14:50.777Z,91.30
2018-03-18T02:19:24.612Z,92.00
2018-03-18T02:23:58.621Z,91.80
2018-03-18T02:28:31.916Z,91.70
2018-03-18T02:33:05.503Z,91.70
2018-03-18T02:37:39.556Z,92.70
2018-03-18T02:42:12.837Z,92.40
2018-03-18T02:46:46.872Z,93.50
2018-03-18T02:51:21.025Z,93.50
2018-03-18T02:55:54.268Z,93.50
2018-03-18T03:00:27.538Z,93.40
2018-03-18T03:05:00.854Z,93.40
2018-03-18T03:09:34.124Z,93.30
2018-03-18T03:14:08.173Z,93.10
2018-03-18T03:18:41.401Z,93.10
2018-03-18T03:23:14.771Z,93.00
2018-03-18T03:27:48.830Z,93.40
2018-03-18T03:32:22.092Z,93.30
2018-03-18T03:36:56.153Z,93.00
2018-03-18T03:41:29.442Z,93.00
2018-03-18T03:46:03.447Z,93.00
2018-03-18T03:50:38.278Z,93.00
2018-03-18T03:55:11.679Z,93.00
2018-03-18T03:59:45.033Z,93.10
2018-03-18T04:04:19.068Z,92.70
2018-03-18T04:08:53.084Z,92.70
2018-03-18T04:13:27.215Z,92.60
2018-03-18T04:18:01.254Z,92.50
2018-03-18T04:22:34.650Z,92.50
2018-03-18T04:27:08.063Z,92.30
2018-03-18T04:31:42.193Z,92.10
2018-03-18T04:36:15.600Z,92.10
2018-03-18T04:40:49.754Z,93.00
2018-03-18T04:45:23.552Z,93.00
2018-03-18T04:49:58.397Z,93.50
2018-03-18T04:54:32.549Z,93.50
2018-03-18T04:59:05.835Z,93.50
2018-03-18T05:03:39.986Z,92.90
2018-03-18T05:08:13.213Z,92.90
2018-03-18T05:12:46.613Z,92.20
2018-03-18T05:17:20.093Z,92.50
2018-03-18T05:21:54.130Z,92.00
2018-03-18T05:26:27.652Z,92.00
2018-03-18T05:31:00.878Z,92.20
2018-03-18T05:35:34.173Z,92.10
2018-03-18T05:40:07.483Z,92.10
2018-03-18T05:44:40.808Z,92.20
2018-03-18T05:49:14.076Z,92.20
2018-03-18T05:53:48.238Z,92.60
2018-03-18T05:58:21.465Z,92.50
2018-03-18T06:02:55.028Z,92.50
2018-03-18T06:07:29.158Z,92.80
2018-03-18T06:12:03.181Z,92.40
2018-03-18T06:16:37.225Z,92.60
2018-03-18T06:21:11.214Z,92.60
2018-03-18T06:25:45.295Z,92.50
2018-03-18T06:30:18.595Z,92.50
2018-03-18T06:34:52.011Z,92.20
2018-03-18T06:39:25.391Z,92.50
2018-03-18T06:44:00.135Z,92.00
2018-03-18T06:48:34.163Z,92.10
2018-03-18T06:53:08.218Z,92.10
2018-03-18T06:57:41.498Z,92.00
2018-03-18T07:02:15.829Z,91.70
2018-03-18T07:06:49.990Z,91.40
2018-03-18T07:11:23.291Z,91.40
2018-03-18T07:15:56.583Z,91.70
2018-03-18T07:20:30.638Z,92.00
2018-03-18T07:25:04.013Z,92.00
2018-03-18T07:29:37.325Z,93.30
2018-03-18T07:34:11.552Z,94.20
2018-03-18T07:38:45.600Z,94.30
2018-03-18T07:43:18.890Z,94.30
2018-03-18T07:47:53.004Z,94.60
2018-03-18T07:52:26.355Z,94.60
2018-03-18T07:56:59.627Z,94.50
2018-03-18T08:01:33.926Z,94.10
2018-03-18T08:06:08.461Z,93.80
2018-03-18T08:10:41.729Z,93.80
2018-03-18T08:15:15.053Z,94.10
2018-03-18T08:19:50.117Z,94.60
2018-03-18T08:24:23.394Z,94.10
2018-03-18T08:28:57.022Z,93.80
2018-03-18T08:33:30.977Z,93.00
2018-03-18T08:38:04.277Z,93.30
2018-03-18T08:42:37.743Z,93.10
2018-03-18T08:47:11.260Z,93.00
2018-03-18T08:51:44.571Z,92.30
2018-03-18T08:56:18.609Z,92.50
2018-03-18T09:00:51.881Z,92.40
2018-03-18T09:05:25.270Z,92.00
2018-03-18T09:09:58.650Z,92.40
2018-03-18T09:14:32.085Z,92.60
2018-03-18T09:19:06.211Z,92.60
2018-03-18T09:23:40.527Z,92.30
2018-03-18T09:28:13.802Z,92.60
2018-03-18T09:32:48.035Z,92.50
2018-03-18T09:37:21.469Z,92.50
2018-03-18T09:41:54.793Z,92.50
2018-03-18T09:46:28.576Z,92.40
2018-03-18T09:51:01.930Z,92.40
2018-03-18T09:55:35.205Z,92.20
2018-03-18T10:00:09.018Z,92.90
2018-03-18T10:04:43.066Z,92.70
2018-03-18T10:09:16.760Z,92.60
2018-03-18T10:13:50.810Z,92.30
2018-03-18T10:18:24.074Z,92.30
2018-03-18T10:22:57.426Z,92.80
2018-03-18T10:27:30.691Z,92.50
2018-03-18T10:32:03.978Z,92.80
2018-03-18T10:36:37.519Z,92.30
2018-03-18T10:41:11.565Z,92.30
2018-03-18T10:45:45.713Z,92.50
2018-03-18T10:50:19.003Z,92.50
2018-03-18T10:54:52.310Z,92.50
2018-03-18T10:59:26.431Z,92.80
2018-03-18T11:04:17.297Z,92.90
2018-03-18T11:08:50.589Z,92.90
2018-03-18T11:13:23.867Z,93.00
2018-03-18T11:17:58.243Z,92.70
2018-03-18T11:22:31.720Z,92.60
2018-03-18T11:27:05.952Z,92.90
2018-03-18T11:31:40.178Z,92.90
2018-03-18T11:36:14.217Z,92.50
2018-03-18T11:40:48.253Z,92.20
2018-03-18T11:45:21.579Z,92.20
2018-03-18T11:49:54.872Z,92.30
2018-03-18T11:54:28.367Z,92.50
2018-03-18T11:59:02.419Z,92.40
2018-03-18T12:03:35.805Z,92.40
2018-03-18T12:13:07.860Z,91.90
2018-03-18T12:17:41.153Z,91.80
2018-03-18T12:22:14.815Z,91.80
2018-03-18T12:26:48.094Z,92.00
2018-03-18T12:31:22.398Z,91.60
2018-03-18T12:35:56.621Z,91.30
2018-03-18T12:40:33.476Z,91.10
2018-03-18T12:45:08.174Z,91.40
2018-03-18T12:49:41.458Z,91.60
2018-03-18T12:54:15.962Z,91.10
2018-03-18T12:58:49.619Z,91.10
2018-03-18T13:03:23.156Z,91.10
2018-03-18T13:07:57.390Z,90.90
2018-03-18T13:12:30.720Z,91.10
2018-03-18T13:17:04.285Z,91.00
2018-03-18T13:21:37.717Z,91.30
2018-03-18T13:26:11.031Z,91.00
2018-03-18T13:30:44.414Z,91.00
2018-03-18T13:35:17.750Z,91.30
2018-03-18T13:39:51.873Z,91.00
2018-03-18T13:44:25.778Z,91.20
2018-03-18T13:48:59.861Z,91.50
2018-03-18T13:53:33.315Z,91.50
2018-03-18T13:58:08.202Z,91.10
2018-03-18T14:02:41.578Z,91.10
2018-03-18T14:07:15.601Z,91.40
2018-03-18T14:11:49.680Z,91.20
2018-03-18T14:16:23.138Z,91.20
2018-03-18T14:20:56.474Z,91.40
2018-03-18T14:25:29.860Z,91.10
2018-03-18T14:30:04.090Z,91.60
2018-03-18T14:34:38.826Z,91.30
2018-03-18T14:39:12.864Z,91.10
2018-03-18T14:43:46.102Z,91.10
2018-03-18T14:48:19.438Z,91.50
2018-03-18T14:52:53.500Z,91.20
2018-03-18T14:57:27.533Z,91.30
2018-03-18T15:02:01.720Z,90.80
2018-03-18T15:06:34.982Z,90.80
2018-03-18T15:11:08.631Z,90.80
2018-03-18T15:15:41.993Z,90.60
2018-03-18T15:20:16.161Z,91.00
2018-03-18T15:24:49.765Z,90.90
2018-03-18T15:29:23.008Z,90.50
2018-03-18T15:33:56.280Z,91.00
2018-03-18T15:38:29.905Z,90.60
2018-03-18T15:43:03.202Z,90.90
2018-03-18T15:47:37.204Z,90.70
2018-03-18T15:52:11.333Z,90.40
2018-03-18T15:56:45.464Z,90.50
2018-03-18T16:01:19.816Z,90.20
2018-03-18T16:05:53.547Z,90.20
2018-03-18T16:10:26.828Z,90.00
2018-03-18T16:15:00.899Z,89.90
2018-03-18T16:19:34.875Z,89.90
2018-03-18T16:24:08.905Z,89.40
2018-03-18T16:28:42.947Z,90.00
2018-03-18T16:33:17.290Z,89.20
2018-03-18T16:37:50.566Z,89.80
2018-03-18T16:42:24.568Z,89.00
2018-03-18T16:46:57.959Z,89.00
2018-03-18T16:51:32.134Z,89.10
2018-03-18T16:56:06.195Z,88.90
2018-03-18T17:00:39.473Z,88.80
2018-03-18T17:05:13.484Z,89.10
2018-03-18T17:09:47.623Z,89.30
2018-03-18T17:14:21.752Z,89.30
2018-03-18T17:18:55.897Z,89.40
2018-03-18T17:23:29.807Z,89.40
2018-03-18T17:28:03.081Z,89.40
2018-03-18T17:32:36.422Z,89.10
2018-03-18T17:37:10.573Z,89.30
2018-03-18T17:41:44.102Z,89.30
2018-03-18T17:46:29.697Z,89.20
2018-03-18T17:51:15.244Z,88.80
2018-03-18T17:55:49.488Z,88.80
2018-03-18T18:00:23.730Z,88.60
2018-03-18T18:04:57.641Z,88.60
2018-03-18T18:09:31.691Z,87.80
2018-03-18T18:14:05.002Z,87.70
2018-03-18T18:18:38.290Z,87.80
2018-03-18T18:23:12.415Z,87.70
2018-03-18T18:27:46.779Z,87.60
2018-03-18T18:32:20.263Z,87.60
2018-03-18T18:36:54.386Z,86.70
2018-03-18T18:41:28.411Z,86.70
2018-03-18T18:46:03.160Z,87.40
2018-03-18T18:50:37.271Z,86.40
2018-03-18T18:55:11.346Z,86.40
2018-03-18T18:59:44.727Z,86.40
2018-03-18T19:04:18.137Z,86.40
2018-03-18T19:08:52.149Z,86.20
2018-03-18T19:13:26.223Z,86.60
2018-03-18T19:17:59.600Z,86.40
2018-03-18T19:22:34.342Z,86.10
2018-03-18T19:27:08.573Z,86.50
2018-03-18T19:31:41.883Z,86.50
2018-03-18T19:36:16.283Z,86.20
2018-03-18T19:40:50.569Z,86.20
2018-03-18T19:45:24.047Z,86.80
2018-03-18T19:49:57.312Z,86.50
2018-03-18T19:54:30.804Z,86.50
2018-03-18T19:59:05.040Z,86.40
2018-03-18T20:03:38.424Z,86.30
2018-03-18T20:08:12.660Z,86.10
2018-03-18T20:12:46.655Z,86.00
2018-03-18T20:17:21.525Z,86.30
2018-03-18T20:21:55.904Z,85.60
2018-03-18T20:26:29.182Z,85.50
2018-03-18T20:31:02.500Z,85.90
2018-03-18T20:35:35.770Z,86.10
2018-03-18T20:40:09.432Z,85.50
2018-03-18T20:44:42.814Z,86.10
2018-03-18T20:49:17.359Z,86.30
2018-03-18T20:53:51.462Z,85.90
2018-03-18T20:58:25.585Z,86.10
2018-03-18T21:02:59.022Z,86.10
2018-03-18T21:07:33.175Z,86.10
2018-03-18T21:12:06.445Z,86.10
2018-03-18T21:16:40.500Z,85.60
2018-03-18T21:21:13.796Z,85.60
2018-03-18T21:25:47.820Z,86.30
2018-03-18T21:30:21.981Z,86.40
2018-03-18T21:34:55.756Z,86.30
2018-03-18T21:39:29.317Z,86.00
2018-03-18T21:44:02.610Z,86.30
2018-03-18T21:48:35.860Z,86.00
2018-03-18T21:53:09.249Z,86.20
2018-03-18T21:57:42.720Z,85.80
2018-03-18T22:02:16.942Z,86.90
2018-03-18T22:06:51.000Z,86.60
2018-03-18T22:11:24.250Z,86.60
2018-03-18T22:15:57.993Z,86.60
2018-03-18T22:20:32.020Z,86.90
2018-03-18T22:25:05.998Z,86.60
2018-03-18T22:29:39.268Z,86.60
2018-03-18T22:34:12.570Z,87.30
2018-03-18T22:38:46.641Z,87.20
2018-03-18T22:43:19.924Z,87.20
2018-03-18T22:47:53.372Z,87.10
2018-03-18T22:52:27.441Z,88.10
2018-03-18T22:57:02.303Z,88.40
2018-03-18T23:01:36.249Z,87.70
2018-03-18T23:06:10.329Z,87.50
2018-03-18T23:10:43.602Z,87.50
2018-03-18T23:15:17.482Z,87.40
2018-03-18T23:19:51.536Z,88.60
2018-03-18T23:24:24.834Z,88.60
2018-03-18T23:28:58.093Z,88.50
2018-03-18T23:33:31.458Z,88.70
2018-03-18T23:38:04.949Z,88.70
2018-03-18T23:42:38.336Z,89.00
2018-03-18T23:47:11.546Z,88.90
2018-03-18T23:51:44.980Z,89.50
2018-03-18T23:56:19.005Z,90.00
